createdAt,value
2022-12-06T00:01:35.995Z,45.75
2022-12-06T00:04:11.960Z,46.35
2022-12-06T00:06:41.392Z,44.10
2022-12-06T00:09:08.666Z,43.67
2022-12-06T00:11:36.583Z,44.58
2022-12-06T00:14:06.101Z,43.33
2022-12-06T00:16:34.466Z,44.20
2022-12-06T00:19:02.123Z,40.80
2022-12-06T00:21:31.997Z,41.55
2022-12-06T00:24:11.051Z,41.00
2022-12-06T00:26:39.687Z,39.92
2022-12-06T00:29:07.904Z,39.42
2022-12-06T00:31:35.780Z,40.38
2022-12-06T00:34:02.977Z,38.42
2022-12-06T00:36:32.446Z,38.33
2022-12-06T00:39:01.026Z,38.90
2022-12-06T00:41:28.255Z,37.97
2022-12-06T00:43:55.292Z,38.13
2022-12-06T00:46:24.754Z,36.00
2022-12-06T00:48:52.517Z,37.53
2022-12-06T00:51:20.707Z,36.38
2022-12-06T00:53:47.989Z,35.00
2022-12-06T00:56:15.192Z,34.45
2022-12-06T00:58:42.490Z,34.10
2022-12-06T01:01:24.590Z,34.08
2022-12-06T01:03:56.209Z,33.33
2022-12-06T01:06:28.106Z,32.70
2022-12-06T01:08:56.696Z,31.95
2022-12-06T01:11:24.041Z,32.83
2022-12-06T01:13:52.030Z,32.33
2022-12-06T01:16:23.318Z,31.35
2022-12-06T01:18:53.861Z,31.05
2022-12-06T01:21:21.476Z,29.77
2022-12-06T01:23:49.193Z,30.80
2022-12-06T01:26:30.855Z,31.35
2022-12-06T01:28:58.956Z,29.27
2022-12-06T01:31:26.035Z,30.35
2022-12-06T01:33:52.908Z,29.75
2022-12-06T01:36:24.109Z,29.63
2022-12-06T01:38:56.410Z,28.15
2022-12-06T01:41:26.109Z,27.80
2022-12-06T01:46:39.399Z,28.27
2022-12-06T01:49:18.114Z,26.95
2022-12-06T01:51:52.085Z,26.27
2022-12-06T01:56:49.377Z,26.27
2022-12-06T01:59:16.980Z,24.58
2022-12-06T02:01:44.221Z,25.55
2022-12-06T02:04:11.266Z,26.05
2022-12-06T02:06:39.675Z,24.73
2022-12-06T02:09:08.602Z,24.42
2022-12-06T02:11:36.001Z,23.65
2022-12-06T02:14:06.138Z,24.23
2022-12-06T02:16:52.345Z,23.92
2022-12-06T02:19:37.938Z,22.50
2022-12-06T02:22:22.955Z,23.17
2022-12-06T02:24:59.388Z,24.10
2022-12-06T02:27:53.424Z,23.65
2022-12-06T02:30:32.272Z,22.80
2022-12-06T02:33:05.768Z,21.33
2022-12-06T02:35:37.600Z,22.23
2022-12-06T02:38:22.299Z,21.38
2022-12-06T02:41:01.379Z,21.95
2022-12-06T02:43:51.307Z,21.90
2022-12-06T02:46:20.271Z,21.30
2022-12-06T02:48:48.398Z,20.35
2022-12-06T02:51:17.477Z,21.08
2022-12-06T02:53:50.687Z,20.25
2022-12-06T02:56:17.884Z,19.42
2022-12-06T02:58:44.851Z,20.05
2022-12-06T03:01:24.126Z,20.20
2022-12-06T03:04:02.048Z,18.85
2022-12-06T03:06:41.109Z,19.75
2022-12-06T03:09:20.212Z,19.10
2022-12-06T03:12:11.784Z,19.08
2022-12-06T03:15:14.250Z,18.15
2022-12-06T03:17:48.371Z,18.45
2022-12-06T03:20:28.176Z,17.98
2022-12-06T03:25:24.984Z,17.25
2022-12-06T03:27:54.129Z,17.98
2022-12-06T03:30:21.123Z,17.45
2022-12-06T03:32:49.586Z,17.63
2022-12-06T03:35:24.445Z,16.40
2022-12-06T03:37:56.548Z,16.65
2022-12-06T03:40:29.738Z,15.88
2022-12-06T03:42:56.847Z,16.70
2022-12-06T03:45:28.774Z,16.15
2022-12-06T03:48:01.508Z,16.17
2022-12-06T03:50:41.420Z,17.05
2022-12-06T03:53:08.412Z,14.80
2022-12-06T03:55:35.365Z,15.88
2022-12-06T03:58:02.437Z,15.02
2022-12-06T04:00:29.397Z,14.93
2022-12-06T04:02:56.309Z,14.43
2022-12-06T04:05:23.190Z,15.00
2022-12-06T04:07:50.167Z,14.65
2022-12-06T04:10:17.200Z,13.63
2022-12-06T04:13:02.107Z,14.85
2022-12-06T04:15:32.766Z,14.45
2022-12-06T04:18:13.374Z,13.73
2022-12-06T04:21:11.197Z,13.48
2022-12-06T04:23:39.815Z,14.05
2022-12-06T04:26:09.166Z,14.25
2022-12-06T04:28:55.118Z,13.68
2022-12-06T04:31:41.089Z,12.35
2022-12-06T04:34:26.638Z,12.80
2022-12-06T04:37:13.152Z,13.25
2022-12-06T04:39:40.068Z,13.70
2022-12-06T04:42:25.878Z,12.73
2022-12-06T04:44:52.853Z,12.30
2022-12-06T04:47:19.797Z,12.95
2022-12-06T04:49:46.947Z,12.05
2022-12-06T04:52:14.005Z,12.60
2022-12-06T04:54:41.588Z,12.80
2022-12-06T04:57:11.320Z,13.38
2022-12-06T04:59:40.165Z,12.20
2022-12-06T05:02:08.288Z,11.43
2022-12-06T05:04:35.258Z,11.27
2022-12-06T05:07:02.329Z,11.75
2022-12-06T05:09:29.228Z,11.13
2022-12-06T05:11:56.294Z,11.18
2022-12-06T05:14:23.200Z,11.05
2022-12-06T05:16:50.154Z,11.30
2022-12-06T05:19:17.133Z,11.52
2022-12-06T05:21:44.013Z,11.23
2022-12-06T05:24:10.879Z,9.70
2022-12-06T05:26:37.751Z,9.85
2022-12-06T05:29:04.684Z,10.05
2022-12-06T05:31:31.612Z,10.48
2022-12-06T05:33:58.529Z,10.13
2022-12-06T05:36:26.958Z,9.75
2022-12-06T05:38:54.333Z,10.35
2022-12-06T05:41:22.831Z,9.57
2022-12-06T05:43:50.092Z,10.52
2022-12-06T05:46:17.357Z,10.00
2022-12-06T05:48:44.911Z,9.27
2022-12-06T05:51:12.134Z,9.45
2022-12-06T05:53:39.513Z,9.00
2022-12-06T05:56:11.426Z,9.35
2022-12-06T05:58:38.728Z,9.32
2022-12-06T06:01:06.808Z,9.10
2022-12-06T06:03:33.858Z,9.00
2022-12-06T06:06:01.620Z,8.35
2022-12-06T06:08:29.946Z,8.45
2022-12-06T06:10:57.308Z,8.60
2022-12-06T06:13:24.625Z,8.57
2022-12-06T06:15:51.586Z,8.50
2022-12-06T06:18:19.278Z,8.27
2022-12-06T06:20:54.784Z,7.93
2022-12-06T06:23:22.253Z,7.78
2022-12-06T06:25:49.165Z,7.80
2022-12-06T06:28:16.873Z,8.00
2022-12-06T06:30:43.903Z,7.70
2022-12-06T06:33:10.979Z,7.50
2022-12-06T06:35:39.048Z,7.50
2022-12-06T06:38:06.149Z,7.22
2022-12-06T06:40:33.607Z,7.43
2022-12-06T06:43:18.289Z,7.05
2022-12-06T06:45:46.204Z,6.95
2022-12-06T06:48:13.264Z,8.02
2022-12-06T06:50:40.216Z,36.53
2022-12-06T06:53:07.116Z,51.53
2022-12-06T06:55:35.839Z,47.40
2022-12-06T06:58:03.249Z,43.83
2022-12-06T07:00:30.163Z,41.78
2022-12-06T07:02:57.108Z,39.83
2022-12-06T07:05:24.228Z,37.90
2022-12-06T07:07:51.250Z,33.13
2022-12-06T07:10:18.174Z,32.90
2022-12-06T07:12:45.085Z,30.67
2022-12-06T07:15:11.969Z,29.25
2022-12-06T07:17:38.874Z,61.92
2022-12-06T07:20:06.435Z,68.45
2022-12-06T07:22:33.328Z,72.97
2022-12-06T07:25:00.176Z,72.28
2022-12-06T07:27:27.264Z,66.05
2022-12-06T07:29:54.171Z,61.28
2022-12-06T07:32:21.027Z,57.15
2022-12-06T07:34:47.887Z,52.55
2022-12-06T07:37:15.267Z,49.55
2022-12-06T07:39:43.219Z,46.65
2022-12-06T07:42:29.146Z,45.53
2022-12-06T07:45:02.774Z,108.03
2022-12-06T07:47:34.903Z,113.25
2022-12-06T07:50:02.332Z,114.60
2022-12-06T07:52:33.683Z,108.90
2022-12-06T07:55:00.865Z,99.32
2022-12-06T07:57:28.284Z,91.20
2022-12-06T07:59:55.700Z,85.22
2022-12-06T08:02:25.873Z,75.45
2022-12-06T08:04:53.265Z,71.72
2022-12-06T08:07:23.685Z,67.07
2022-12-06T08:09:51.695Z,62.20
2022-12-06T08:12:18.714Z,61.10
2022-12-06T08:14:45.760Z,56.80
2022-12-06T08:17:12.795Z,57.83
2022-12-06T08:19:39.650Z,54.05
2022-12-06T08:22:06.834Z,50.88
2022-12-06T08:24:33.700Z,50.95
2022-12-06T08:27:00.567Z,48.45
2022-12-06T08:29:27.459Z,48.38
2022-12-06T08:31:54.456Z,46.10
2022-12-06T08:34:21.463Z,45.00
2022-12-06T08:36:48.313Z,43.88
2022-12-06T08:39:15.206Z,41.97
2022-12-06T08:41:58.431Z,41.50
2022-12-06T08:44:27.206Z,40.13
2022-12-06T08:46:54.645Z,61.45
2022-12-06T08:49:23.083Z,94.88
2022-12-06T08:51:50.491Z,86.03
2022-12-06T08:54:19.931Z,80.50
2022-12-06T08:56:46.960Z,72.15
2022-12-06T08:59:14.047Z,69.20
2022-12-06T09:01:41.865Z,64.43
2022-12-06T09:04:10.290Z,60.83
2022-12-06T09:06:39.246Z,58.42
2022-12-06T09:09:06.610Z,56.20
2022-12-06T09:11:33.602Z,55.53
2022-12-06T09:14:00.530Z,50.85
2022-12-06T09:16:27.511Z,52.45
2022-12-06T09:18:54.440Z,47.83
2022-12-06T09:21:24.599Z,47.58
2022-12-06T09:23:55.381Z,45.85
2022-12-06T09:26:22.269Z,45.47
2022-12-06T09:28:50.763Z,43.47
2022-12-06T09:31:18.971Z,42.67
2022-12-06T09:33:46.198Z,41.08
2022-12-06T09:36:23.012Z,39.88
2022-12-06T09:38:55.415Z,49.63
2022-12-06T09:41:23.031Z,61.33
2022-12-06T09:43:52.805Z,56.53
2022-12-06T09:48:52.051Z,54.33
2022-12-06T09:51:22.044Z,51.95
2022-12-06T09:54:00.895Z,46.95
2022-12-06T09:57:14.228Z,43.50
2022-12-06T09:59:57.011Z,43.63
2022-12-06T10:02:46.388Z,41.75
2022-12-06T10:05:33.923Z,38.80
2022-12-06T10:08:10.132Z,37.60
2022-12-06T10:10:53.949Z,35.95
2022-12-06T10:13:56.261Z,35.13
2022-12-06T10:16:26.009Z,33.00
2022-12-06T10:19:08.045Z,32.90
2022-12-06T10:22:05.709Z,31.85
2022-12-06T10:24:51.028Z,30.63
2022-12-06T10:28:01.104Z,30.70
2022-12-06T10:30:28.115Z,30.55
2022-12-06T10:33:05.777Z,29.67
2022-12-06T10:36:06.038Z,28.42
2022-12-06T10:38:41.316Z,27.92
2022-12-06T10:41:53.385Z,27.70
2022-12-06T10:44:30.446Z,27.75
2022-12-06T10:47:04.006Z,26.25
2022-12-06T10:50:01.447Z,26.05
2022-12-06T10:52:28.459Z,26.13
2022-12-06T10:55:10.860Z,26.08
2022-12-06T10:57:43.730Z,24.85
2022-12-06T11:00:16.177Z,26.52
2022-12-06T11:03:04.791Z,24.55
2022-12-06T11:05:48.996Z,24.67
2022-12-06T11:08:26.022Z,23.77
2022-12-06T11:10:54.914Z,23.73
2022-12-06T11:13:43.317Z,22.88
2022-12-06T11:16:53.482Z,22.95
2022-12-06T11:19:39.333Z,23.25
2022-12-06T11:22:39.623Z,22.80
2022-12-06T11:25:09.498Z,21.38
2022-12-06T11:27:46.947Z,22.52
2022-12-06T11:30:19.989Z,21.65
2022-12-06T11:32:49.073Z,22.67
2022-12-06T11:35:23.426Z,22.80
2022-12-06T11:37:54.819Z,22.73
2022-12-06T11:43:11.566Z,22.85
2022-12-06T11:45:40.326Z,22.17
2022-12-06T11:48:19.345Z,23.00
2022-12-06T11:50:47.963Z,20.88
2022-12-06T11:53:50.258Z,21.75
2022-12-06T11:56:30.996Z,21.42
2022-12-06T11:59:28.552Z,20.58
2022-12-06T12:01:57.826Z,35.85
2022-12-06T12:04:36.039Z,41.70
2022-12-06T12:07:18.497Z,40.50
2022-12-06T12:09:54.960Z,38.70
2022-12-06T12:12:24.539Z,35.10
2022-12-06T12:14:56.635Z,32.83
2022-12-06T12:17:29.275Z,30.08
2022-12-06T12:20:05.504Z,29.73
2022-12-06T12:22:36.152Z,26.92
2022-12-06T12:25:28.466Z,26.80
2022-12-06T12:27:57.803Z,24.88
2022-12-06T12:30:28.295Z,24.45
2022-12-06T12:33:19.553Z,24.15
2022-12-06T12:35:51.258Z,23.55
2022-12-06T12:38:36.354Z,22.38
2022-12-06T12:41:12.642Z,21.45
2022-12-06T12:43:40.045Z,22.05
2022-12-06T12:46:10.151Z,20.08
2022-12-06T12:48:38.972Z,20.63
2022-12-06T12:51:23.008Z,19.07
2022-12-06T12:53:56.169Z,19.00
2022-12-06T12:56:23.859Z,20.20
2022-12-06T12:58:54.818Z,18.85
2022-12-06T13:01:24.814Z,18.08
2022-12-06T13:04:02.355Z,18.63
2022-12-06T13:06:45.762Z,17.90
2022-12-06T13:09:20.735Z,17.95
2022-12-06T13:11:53.210Z,18.10
2022-12-06T13:14:22.098Z,16.25
2022-12-06T13:16:52.271Z,17.00
2022-12-06T13:19:21.034Z,16.27
2022-12-06T13:21:48.618Z,16.13
2022-12-06T13:24:24.428Z,16.55
2022-12-06T13:27:04.184Z,15.50
2022-12-06T13:29:37.600Z,15.57
2022-12-06T13:32:28.298Z,15.38
2022-12-06T13:35:04.871Z,15.45
2022-12-06T13:37:48.634Z,14.35
2022-12-06T13:40:33.966Z,14.00
2022-12-06T13:43:06.325Z,14.30
2022-12-06T13:45:48.402Z,13.90
2022-12-06T13:48:24.648Z,14.38
2022-12-06T13:50:54.808Z,14.85
2022-12-06T13:53:23.868Z,14.43
2022-12-06T13:55:59.715Z,13.73
2022-12-06T13:58:26.719Z,14.27
2022-12-06T14:00:57.416Z,13.90
2022-12-06T14:03:27.124Z,13.85
2022-12-06T14:08:55.214Z,13.07
2022-12-06T14:11:27.873Z,12.60
2022-12-06T14:14:00.554Z,13.38
2022-12-06T14:16:48.625Z,12.98
2022-12-06T14:19:24.555Z,12.98
2022-12-06T14:21:58.421Z,12.73
2022-12-06T14:24:29.258Z,12.82
2022-12-06T14:27:13.256Z,12.32
2022-12-06T14:29:42.101Z,12.40
2022-12-06T14:32:09.784Z,12.45
2022-12-06T14:34:37.288Z,12.60
2022-12-06T14:37:20.901Z,12.68
2022-12-06T14:39:52.750Z,13.00
2022-12-06T14:42:39.065Z,12.18
2022-12-06T14:45:12.385Z,12.07
2022-12-06T14:47:39.427Z,11.20
2022-12-06T14:50:29.134Z,11.48
2022-12-06T14:55:25.036Z,12.00
2022-12-06T14:58:03.125Z,11.20
2022-12-06T15:00:38.870Z,11.52
2022-12-06T15:03:10.393Z,10.63
2022-12-06T15:05:40.153Z,10.35
2022-12-06T15:10:57.029Z,11.00
2022-12-06T15:13:24.593Z,10.80
2022-12-06T15:16:05.404Z,10.82
2022-12-06T15:18:35.613Z,11.05
2022-12-06T15:21:02.597Z,10.98
2022-12-06T15:23:29.740Z,10.55
2022-12-06T15:25:56.969Z,11.38
2022-12-06T15:28:24.128Z,11.40
2022-12-06T15:30:51.275Z,11.88
2022-12-06T15:33:20.624Z,36.05
2022-12-06T15:35:47.900Z,54.13
2022-12-06T15:38:14.860Z,54.42
2022-12-06T15:40:47.852Z,58.08
2022-12-06T15:43:23.666Z,57.75
2022-12-06T15:45:50.807Z,60.25
2022-12-06T15:48:17.703Z,59.72
2022-12-06T15:50:44.677Z,59.60
2022-12-06T15:53:20.428Z,57.42
2022-12-06T15:55:47.682Z,56.08
2022-12-06T15:58:14.624Z,63.83
2022-12-06T16:00:41.716Z,70.50
2022-12-06T16:03:08.886Z,79.80
2022-12-06T16:05:36.103Z,138.43
2022-12-06T16:08:03.233Z,184.27
2022-12-06T16:11:03.002Z,210.40
2022-12-06T16:13:23.623Z,218.63
2022-12-06T16:15:52.011Z,217.27
2022-12-06T16:18:19.517Z,211.23
2022-12-06T16:20:46.691Z,212.88
2022-12-06T16:26:24.630Z,188.55
2022-12-06T16:28:51.567Z,180.63
2022-12-06T16:31:18.613Z,171.57
2022-12-06T16:33:45.595Z,168.68
2022-12-06T16:36:16.267Z,159.40
2022-12-06T16:38:43.292Z,144.77
2022-12-06T16:41:31.100Z,138.35
2022-12-06T16:43:58.630Z,130.30
2022-12-06T16:46:30.131Z,125.55
2022-12-06T16:49:37.215Z,117.85
2022-12-06T16:51:53.552Z,106.93
2022-12-06T16:54:20.707Z,107.35
2022-12-06T16:56:48.942Z,109.55
2022-12-06T16:59:17.706Z,124.82
2022-12-06T17:01:53.127Z,131.60
2022-12-06T17:04:20.571Z,126.80
2022-12-06T17:06:48.201Z,120.22
2022-12-06T17:09:16.196Z,112.40
2022-12-06T17:12:02.091Z,109.63
2022-12-06T17:14:29.356Z,106.35
2022-12-06T17:16:57.185Z,103.18
2022-12-06T17:19:28.497Z,93.25
2022-12-06T17:21:56.122Z,99.63
2022-12-06T17:24:25.244Z,94.50
2022-12-06T17:26:54.253Z,89.75
2022-12-06T17:29:23.538Z,91.32
2022-12-06T17:31:51.206Z,79.03
2022-12-06T17:34:20.038Z,78.13
2022-12-06T17:36:48.136Z,74.85
2022-12-06T17:39:18.388Z,77.30
2022-12-06T17:42:04.134Z,75.60
2022-12-06T17:44:31.369Z,71.80
2022-12-06T17:46:58.473Z,69.38
2022-12-06T17:49:26.534Z,70.80
2022-12-06T17:51:53.797Z,71.80
2022-12-06T17:54:21.188Z,68.43
2022-12-06T17:56:55.997Z,69.20
2022-12-06T17:59:28.012Z,67.85
2022-12-06T18:02:15.056Z,68.45
2022-12-06T18:04:44.128Z,67.65
2022-12-06T18:07:12.244Z,68.57
2022-12-06T18:09:39.339Z,67.22
2022-12-06T18:12:09.043Z,64.30
2022-12-06T18:14:36.081Z,59.20
2022-12-06T18:17:03.039Z,60.25
2022-12-06T18:19:30.486Z,58.42
2022-12-06T18:21:57.407Z,62.00
2022-12-06T18:24:27.962Z,63.17
2022-12-06T18:26:58.864Z,70.18
2022-12-06T18:29:25.795Z,73.35
2022-12-06T18:31:52.904Z,71.90
2022-12-06T18:34:20.294Z,67.05
2022-12-06T18:36:47.381Z,64.40
2022-12-06T18:39:16.633Z,61.30
2022-12-06T18:41:44.586Z,58.20
2022-12-06T18:44:12.518Z,59.63
2022-12-06T18:46:42.533Z,57.05
2022-12-06T18:49:11.387Z,55.45
2022-12-06T18:51:41.654Z,54.50
2022-12-06T18:54:08.860Z,52.33
2022-12-06T18:56:36.212Z,50.58
2022-12-06T18:59:05.742Z,49.80
2022-12-06T19:04:03.072Z,48.40
2022-12-06T19:06:32.378Z,45.78
2022-12-06T19:09:04.317Z,46.20
2022-12-06T19:11:31.499Z,46.13
2022-12-06T19:13:59.774Z,45.40
2022-12-06T19:16:30.970Z,44.53
2022-12-06T19:18:59.723Z,45.65
2022-12-06T19:21:27.191Z,44.57
2022-12-06T19:23:55.290Z,44.67
2022-12-06T19:26:23.270Z,43.58
2022-12-06T19:28:50.741Z,45.30
2022-12-06T19:31:17.857Z,45.72
2022-12-06T19:33:48.391Z,65.35
2022-12-06T19:36:24.101Z,73.53
2022-12-06T19:38:59.489Z,73.75
2022-12-06T19:41:26.459Z,73.22
2022-12-06T19:44:11.869Z,66.88
2022-12-06T19:46:41.050Z,63.78
2022-12-06T19:49:08.285Z,58.92
2022-12-06T19:51:36.845Z,56.88
2022-12-06T19:54:04.533Z,55.03
2022-12-06T19:56:31.926Z,54.03
2022-12-06T19:58:59.057Z,53.03
2022-12-06T20:01:29.794Z,50.60
2022-12-06T20:03:57.187Z,49.45
2022-12-06T20:06:26.240Z,48.92
2022-12-06T20:08:54.978Z,49.90
2022-12-06T20:11:42.463Z,61.08
2022-12-06T20:14:15.305Z,73.18
2022-12-06T20:16:43.259Z,81.25
2022-12-06T20:19:11.464Z,75.38
2022-12-06T20:21:38.396Z,69.00
2022-12-06T20:24:05.550Z,64.97
2022-12-06T20:26:32.964Z,62.50
2022-12-06T20:29:00.165Z,59.55
2022-12-06T20:31:28.882Z,57.63
2022-12-06T20:34:00.040Z,55.08
2022-12-06T20:36:27.624Z,53.30
2022-12-06T20:38:55.473Z,50.50
2022-12-06T20:41:27.197Z,54.30
2022-12-06T20:43:54.099Z,51.90
2022-12-06T20:46:23.254Z,51.22
2022-12-06T20:48:50.132Z,51.80
2022-12-06T20:51:19.533Z,49.65
2022-12-06T20:53:50.268Z,50.22
2022-12-06T20:56:19.465Z,48.80
2022-12-06T20:58:48.061Z,48.35
2022-12-06T21:01:19.627Z,45.13
2022-12-06T21:03:47.892Z,44.72
2022-12-06T21:06:15.657Z,45.40
2022-12-06T21:08:42.613Z,43.97
2022-12-06T21:11:25.464Z,44.63
2022-12-06T21:13:56.975Z,44.95
2022-12-06T21:16:29.256Z,44.67
2022-12-06T21:19:07.708Z,42.65
2022-12-06T21:21:36.840Z,43.28
2022-12-06T21:24:06.144Z,41.20
2022-12-06T21:26:33.618Z,39.97
2022-12-06T21:29:00.579Z,40.90
2022-12-06T21:31:45.939Z,39.88
2022-12-06T21:34:14.642Z,40.10
2022-12-06T21:36:41.760Z,38.60
2022-12-06T21:39:09.795Z,38.88
2022-12-06T21:41:36.734Z,36.40
2022-12-06T21:44:03.584Z,37.28
2022-12-06T21:46:30.539Z,37.30
2022-12-06T21:48:59.307Z,35.90
2022-12-06T21:51:28.899Z,35.17
2022-12-06T21:56:24.964Z,35.28
2022-12-06T21:58:52.085Z,60.85
2022-12-06T22:01:22.082Z,72.93
2022-12-06T22:03:50.698Z,65.53
2022-12-06T22:06:18.321Z,64.90
2022-12-06T22:08:46.231Z,59.17
2022-12-06T22:11:15.464Z,54.17
2022-12-06T22:13:42.611Z,49.78
2022-12-06T22:16:11.511Z,47.67
2022-12-06T22:18:44.795Z,45.45
2022-12-06T22:21:20.028Z,42.95
2022-12-06T22:23:47.652Z,42.90
2022-12-06T22:26:17.161Z,40.78
2022-12-06T22:31:21.039Z,37.88
2022-12-06T22:33:48.548Z,37.28
2022-12-06T22:36:16.158Z,40.50
2022-12-06T22:38:43.652Z,52.33
2022-12-06T22:41:10.706Z,53.50
2022-12-06T22:43:38.009Z,54.00
2022-12-06T22:46:14.643Z,49.42
2022-12-06T22:48:42.253Z,46.30
2022-12-06T22:51:13.763Z,44.83
2022-12-06T22:53:42.058Z,42.00
2022-12-06T22:56:09.676Z,41.53
2022-12-06T22:58:36.614Z,40.65
2022-12-06T23:01:16.763Z,37.78
2022-12-06T23:03:45.480Z,37.60
2022-12-06T23:06:13.298Z,36.60
2022-12-06T23:08:40.466Z,35.72
2022-12-06T23:11:10.579Z,35.35
2022-12-06T23:13:37.630Z,33.92
2022-12-06T23:16:07.515Z,33.55
2022-12-06T23:18:35.095Z,33.08
2022-12-06T23:21:06.211Z,32.70
2022-12-06T23:23:33.693Z,32.63
2022-12-06T23:26:11.094Z,31.27
2022-12-06T23:31:18.387Z,30.00
2022-12-06T23:33:46.566Z,32.50
2022-12-06T23:36:19.267Z,46.78
2022-12-06T23:38:46.363Z,50.40
2022-12-06T23:41:15.625Z,53.38
2022-12-06T23:43:42.660Z,53.90
2022-12-06T23:46:20.602Z,51.20
2022-12-06T23:48:50.134Z,45.17
2022-12-06T23:51:19.419Z,42.65
2022-12-06T23:53:50.877Z,40.55
2022-12-06T23:56:18.964Z,38.97
2022-12-06T23:58:46.118Z,36.75
